Time;durP1;ratioP1;P1;durP2;ratioP2;P2;SDS_P1;SDS_P2;PMS_P1;PMS_P2;Temp;Humidity;BMP_temperature;BMP_pressure;BME280_temperature;BME280_humidity;BME280_pressure;Samples;Min_cycle;Max_cycle;Signal;HPM_P1;HPM_P2
2022/01/27 00:02:54;;;;;;;;;103.75;84.25;;;;;;;;5038347;28;10435;-73
2022/01/27 00:05:25;;;;;;;;;104.00;84.75;;;;;;;;5038030;28;8765;-75
2022/01/27 00:13:24;;;;;;;;;94.00;70.50;;;;;;;;5037869;28;10415;-74
2022/01/27 00:15:58;;;;;;;;;95.75;72.50;;;;;;;;5038659;28;11471;-73
2022/01/27 00:18:23;;;;;;;;;94.50;74.25;;;;;;;;5037975;28;10652;-74
2022/01/27 00:20:49;;;;;;;;;95.50;72.75;;;;;;;;5038174;28;11453;-75
2022/01/27 00:23:15;;;;;;;;;98.00;76.25;;;;;;;;5038603;28;11547;-72
2022/01/27 00:25:40;;;;;;;;;98.50;80.50;;;;;;;;5037578;28;10412;-75
2022/01/27 00:28:05;;;;;;;;;104.50;86.50;;;;;;;;5037863;28;12204;-75
2022/01/27 00:30:31;;;;;;;;;96.50;85.75;;;;;;;;5037372;28;23272;-75
2022/01/27 00:32:57;;;;;;;;;105.75;100.25;;;;;;;;5037205;28;24862;-75
2022/01/27 00:35:22;;;;;;;;;104.50;96.75;;;;;;;;5037826;28;24747;-73
2022/01/27 00:37:47;;;;;;;;;97.00;89.00;;;;;;;;5037677;28;24544;-74
2022/01/27 00:40:13;;;;;;;;;106.50;95.75;;;;;;;;5037938;28;23750;-74
2022/01/27 00:42:38;;;;;;;;;110.50;101.50;;;;;;;;5037205;28;23481;-74
2022/01/27 00:45:04;;;;;;;;;109.00;100.00;;;;;;;;5035788;28;25841;-74
2022/01/27 00:47:30;;;;;;;;;99.25;89.75;;;;;;;;5037617;28;13500;-75
2022/01/27 00:49:55;;;;;;;;;95.50;85.00;;;;;;;;5036687;28;24282;-74
2022/01/27 00:52:28;;;;;;;;;97.25;87.75;;;;;;;;5052790;28;12141;-73
2022/01/27 00:54:54;;;;;;;;;100.25;89.00;;;;;;;;5052682;28;12168;-74
2022/01/27 00:59:55;;;;;;;;;98.00;85.00;;;;;;;;5037628;28;12293;-73
2022/01/27 01:02:37;;;;;;;;;96.00;82.25;;;;;;;;5036476;28;23371;-73
2022/01/27 01:07:51;;;;;;;;;100.50;89.00;;;;;;;;5037757;28;11683;-74
2022/01/27 01:15:17;;;;;;;;;100.50;89.75;;;;;;;;5038408;28;11488;-74
2022/01/27 01:17:56;;;;;;;;;102.50;91.50;;;;;;;;5072691;28;23977;-73
2022/01/27 01:33:56;;;;;;;;;102.00;93.50;;;;;;;;5040477;28;12387;-74
2022/01/27 01:36:35;;;;;;;;;105.25;89.00;;;;;;;;5040606;28;11558;-74
2022/01/27 01:39:00;;;;;;;;;101.25;94.75;;;;;;;;5040189;28;12708;-74
2022/01/27 01:41:25;;;;;;;;;99.25;85.00;;;;;;;;5039930;28;12464;-74
2022/01/27 01:43:50;;;;;;;;;104.25;93.75;;;;;;;;5039796;28;23479;-74
2022/01/27 01:46:16;;;;;;;;;100.00;86.75;;;;;;;;5040490;28;23930;-74
2022/01/27 01:48:41;;;;;;;;;102.00;89.00;;;;;;;;5040850;28;12245;-74
2022/01/27 01:51:06;;;;;;;;;104.25;92.00;;;;;;;;5040443;28;10399;-73
2022/01/27 01:53:32;;;;;;;;;96.75;82.75;;;;;;;;5040701;28;12383;-74
2022/01/27 01:55:58;;;;;;;;;98.75;83.25;;;;;;;;5039777;28;24658;-74
2022/01/27 01:58:23;;;;;;;;;95.25;81.50;;;;;;;;5071656;28;12838;-73
2022/01/27 02:00:48;;;;;;;;;102.75;92.25;;;;;;;;5039797;28;11442;-72
2022/01/27 02:03:14;;;;;;;;;99.75;86.25;;;;;;;;5039102;28;23436;-73
2022/01/27 02:05:45;;;;;;;;;99.50;87.25;;;;;;;;5038985;28;23661;-73
2022/01/27 02:18:42;;;;;;;;;97.00;82.00;;;;;;;;5039479;28;10405;-74
2022/01/27 02:21:08;;;;;;;;;96.25;80.25;;;;;;;;5039645;28;9164;-74
2022/01/27 02:23:33;;;;;;;;;94.75;79.75;;;;;;;;5039531;28;12673;-72
2022/01/27 02:25:58;;;;;;;;;96.75;85.00;;;;;;;;5070789;28;13763;-74
2022/01/27 02:28:23;;;;;;;;;97.25;80.25;;;;;;;;5039152;28;12537;-74
2022/01/27 02:30:49;;;;;;;;;99.50;86.25;;;;;;;;5038985;28;11662;-74
2022/01/27 02:33:14;;;;;;;;;104.00;89.25;;;;;;;;5039232;28;10336;-73
2022/01/27 02:35:39;;;;;;;;;94.50;76.50;;;;;;;;5070252;28;23952;-72
2022/01/27 02:38:05;;;;;;;;;101.25;87.75;;;;;;;;5038814;28;23498;-74
2022/01/27 02:40:38;;;;;;;;;97.00;80.00;;;;;;;;5038707;28;23612;-75
2022/01/27 02:43:04;;;;;;;;;99.25;86.75;;;;;;;;5038611;28;23455;-74
2022/01/27 02:45:39;;;;;;;;;101.75;91.25;;;;;;;;5039727;28;11965;-74
2022/01/27 02:48:05;;;;;;;;;103.25;93.25;;;;;;;;5039266;28;23941;-74
2022/01/27 02:50:30;;;;;;;;;99.50;83.25;;;;;;;;5039093;28;9719;-73
2022/01/27 02:52:55;;;;;;;;;105.50;86.50;;;;;;;;5054086;28;23893;-73
2022/01/27 02:55:21;;;;;;;;;100.00;90.50;;;;;;;;5038939;28;23340;-73
2022/01/27 02:57:46;;;;;;;;;99.25;84.75;;;;;;;;5039222;28;12236;-74
2022/01/27 03:00:11;;;;;;;;;103.50;91.75;;;;;;;;5038980;28;23299;-73
2022/01/27 03:02:37;;;;;;;;;88.50;75.25;;;;;;;;5038354;28;24939;-74
2022/01/27 03:05:03;;;;;;;;;101.00;87.50;;;;;;;;5037834;28;23451;-74
2022/01/27 03:07:28;;;;;;;;;101.50;83.25;;;;;;;;5038145;28;25043;-73
2022/01/27 03:09:56;;;;;;;;;103.75;92.00;;;;;;;;5037096;28;10683;-74
2022/01/27 03:12:25;;;;;;;;;98.25;74.25;;;;;;;;5055092;28;12333;-74
2022/01/27 03:14:50;;;;;;;;;103.25;90.00;;;;;;;;5058346;28;24791;-74
2022/01/27 03:17:16;;;;;;;;;102.50;93.25;;;;;;;;5058741;28;23479;-74
2022/01/27 03:19:41;;;;;;;;;99.50;83.75;;;;;;;;5058950;28;10415;-74
2022/01/27 03:22:08;;;;;;;;;98.75;87.25;;;;;;;;5058057;28;23412;-74
2022/01/27 03:24:33;;;;;;;;;100.50;84.00;;;;;;;;5058456;28;10754;-74
2022/01/27 03:26:59;;;;;;;;;94.50;78.25;;;;;;;;5058538;28;23750;-73
2022/01/27 03:29:25;;;;;;;;;101.75;88.75;;;;;;;;5058299;28;24307;-73
2022/01/27 03:31:50;;;;;;;;;97.50;81.25;;;;;;;;5058706;28;23304;-74
2022/01/27 03:34:16;;;;;;;;;99.00;85.00;;;;;;;;5058248;28;24608;-73
2022/01/27 03:36:41;;;;;;;;;102.75;88.25;;;;;;;;5058812;28;11544;-74
2022/01/27 03:39:10;;;;;;;;;101.50;89.75;;;;;;;;5056286;28;23326;-74
2022/01/27 03:41:37;;;;;;;;;102.25;88.25;;;;;;;;5058795;28;11303;-75
2022/01/27 03:44:03;;;;;;;;;99.50;86.00;;;;;;;;5058273;28;10645;-74
2022/01/27 03:46:29;;;;;;;;;111.00;98.00;;;;;;;;5058933;28;24697;-73
2022/01/27 03:48:55;;;;;;;;;99.75;86.25;;;;;;;;5058121;28;23991;-73
2022/01/27 03:51:21;;;;;;;;;104.50;97.00;;;;;;;;5058138;28;23490;-74
2022/01/27 03:53:46;;;;;;;;;102.25;90.75;;;;;;;;5058021;28;23400;-73
2022/01/27 03:56:11;;;;;;;;;108.25;89.50;;;;;;;;5058528;28;10856;-73
2022/01/27 03:58:40;;;;;;;;;104.75;92.50;;;;;;;;5058244;28;12502;-73
2022/01/27 06:54:56;;;;;;;;;92.25;83.75;;;;;;;;5133523;27;1605957;-73
2022/01/27 06:57:22;;;;;;;;;100.25;84.00;;;;;;;;5175220;27;22552;-72
2022/01/27 06:59:47;;;;;;;;;97.75;79.50;;;;;;;;5189898;27;23422;-69
2022/01/27 07:02:12;;;;;;;;;97.75;78.50;;;;;;;;5174589;27;23980;-70
2022/01/27 07:04:37;;;;;;;;;98.25;81.75;;;;;;;;5187626;27;8832;-69
2022/01/27 07:07:03;;;;;;;;;102.00;86.75;;;;;;;;5188388;27;12214;-79
2022/01/27 07:09:28;;;;;;;;;98.75;75.25;;;;;;;;5157612;27;25586;-72
2022/01/27 07:11:54;;;;;;;;;92.00;76.00;;;;;;;;5175519;27;23518;-74
2022/01/27 07:14:19;;;;;;;;;89.50;72.00;;;;;;;;5177869;27;11672;-71
2022/01/27 07:16:44;;;;;;;;;97.00;77.50;;;;;;;;5183611;27;12193;-71
2022/01/27 07:19:10;;;;;;;;;95.00;79.25;;;;;;;;5185044;27;13268;-72
2022/01/27 07:21:35;;;;;;;;;93.00;74.25;;;;;;;;5186612;27;11378;-72
2022/01/27 07:24:01;;;;;;;;;89.50;70.50;;;;;;;;5182335;27;8808;-70
2022/01/27 07:26:26;;;;;;;;;94.00;78.25;;;;;;;;5176300;27;13234;-71
2022/01/27 07:28:55;;;;;;;;;93.00;73.50;;;;;;;;5175913;27;13466;-72
2022/01/27 07:31:20;;;;;;;;;90.00;69.00;;;;;;;;5176675;27;11795;-71
2022/01/27 07:33:51;;;;;;;;;95.50;75.00;;;;;;;;5177075;27;12454;-71
2022/01/27 07:36:16;;;;;;;;;85.25;63.00;;;;;;;;5176607;27;11815;-72
2022/01/27 07:38:42;;;;;;;;;88.50;68.50;;;;;;;;5176751;27;12524;-72
2022/01/27 07:41:07;;;;;;;;;88.50;66.75;;;;;;;;5176016;27;11398;-73
2022/01/27 07:43:32;;;;;;;;;100.75;89.25;;;;;;;;5177027;27;8802;-73
2022/01/27 07:45:59;;;;;;;;;103.50;92.25;;;;;;;;5176372;27;23327;-73
2022/01/27 16:39:10;;;;;;;;;26.33;23.33;;;;;;;;5217526;27;78964;-80
2022/01/27 16:41:36;;;;;;;;;20.67;17.00;;;;;;;;5200118;27;23217;-83
2022/01/27 16:44:01;;;;;;;;;25.00;19.67;;;;;;;;5199418;27;12180;-79
2022/01/27 16:46:27;;;;;;;;;23.00;21.00;;;;;;;;5199538;27;11611;-80
2022/01/27 16:48:53;;;;;;;;;30.00;29.00;;;;;;;;5195969;27;14303;-79
2022/01/27 16:51:19;;;;;;;;;38.67;33.33;;;;;;;;5179738;27;11526;-75
2022/01/27 16:53:44;;;;;;;;;30.67;24.33;;;;;;;;5198790;27;12740;-74
2022/01/27 16:56:09;;;;;;;;;29.33;27.67;;;;;;;;5199307;27;10263;-75
2022/01/27 16:58:34;;;;;;;;;39.25;30.75;;;;;;;;5199133;27;13233;-74
2022/01/27 17:01:00;;;;;;;;;31.75;26.25;;;;;;;;5198615;27;13532;-75
2022/01/27 17:03:25;;;;;;;;;27.75;27.75;;;;;;;;5198754;27;11502;-75
2022/01/27 17:05:50;;;;;;;;;28.50;26.50;;;;;;;;5198572;27;12737;-75
2022/01/27 17:08:20;;;;;;;;;25.00;20.25;;;;;;;;5198698;27;11444;-74
2022/01/27 17:10:45;;;;;;;;;31.00;27.75;;;;;;;;5198242;27;11458;-74
2022/01/27 17:13:11;;;;;;;;;33.00;29.00;;;;;;;;5197911;27;12192;-73
2022/01/27 17:15:36;;;;;;;;;33.00;27.25;;;;;;;;5198953;27;11612;-72
2022/01/27 17:18:01;;;;;;;;;33.25;30.00;;;;;;;;5191099;27;8930;-74
2022/01/27 17:20:27;;;;;;;;;26.25;25.25;;;;;;;;5190096;27;13413;-77
2022/01/27 17:22:52;;;;;;;;;26.25;24.50;;;;;;;;5187777;27;13222;-76
2022/01/27 17:25:21;;;;;;;;;31.00;30.25;;;;;;;;5192185;27;9110;-72
2022/01/27 17:27:46;;;;;;;;;39.33;35.33;;;;;;;;5182675;27;13303;-72
2022/01/27 17:30:13;;;;;;;;;32.67;32.00;;;;;;;;5179658;27;11625;-73
2022/01/27 17:32:38;;;;;;;;;34.25;32.25;;;;;;;;5179399;27;11578;-74
2022/01/27 17:35:04;;;;;;;;;39.00;37.00;;;;;;;;5180572;27;11560;-80
2022/01/27 17:37:30;;;;;;;;;29.75;27.00;;;;;;;;5165228;27;12018;-77
2022/01/27 17:39:55;;;;;;;;;26.00;22.50;;;;;;;;5190323;27;12218;-75
2022/01/27 17:42:24;;;;;;;;;29.00;26.50;;;;;;;;5187352;27;11398;-76
2022/01/27 17:45:00;;;;;;;;;37.00;32.00;;;;;;;;5166780;27;10738;-78
2022/01/27 17:47:25;;;;;;;;;30.25;27.00;;;;;;;;5184573;27;13430;-76
2022/01/27 17:49:51;;;;;;;;;32.00;26.00;;;;;;;;5175084;27;11511;-81
2022/01/27 17:52:16;;;;;;;;;27.50;27.50;;;;;;;;5152919;27;13680;-78
2022/01/27 17:54:41;;;;;;;;;32.00;28.50;;;;;;;;5169638;27;13533;-73
2022/01/27 17:57:07;;;;;;;;;33.67;30.67;;;;;;;;5172748;27;12881;-74
2022/01/27 17:59:32;;;;;;;;;33.33;31.67;;;;;;;;5154203;27;14579;-77
2022/01/27 18:01:57;;;;;;;;;44.00;36.33;;;;;;;;5154652;27;9940;-76
2022/01/27 18:04:23;;;;;;;;;34.50;28.75;;;;;;;;5182445;27;13520;-76
2022/01/27 18:06:49;;;;;;;;;51.00;42.33;;;;;;;;5183233;27;12183;-76
2022/01/27 18:09:14;;;;;;;;;44.67;41.33;;;;;;;;5182996;27;12311;-74
2022/01/27 18:11:45;;;;;;;;;48.33;40.00;;;;;;;;5183493;27;12836;-75
2022/01/27 18:14:11;;;;;;;;;46.33;39.33;;;;;;;;5176557;27;11725;-76
2022/01/27 18:16:38;;;;;;;;;28.33;27.00;;;;;;;;5148643;27;14909;-76
2022/01/27 18:19:03;;;;;;;;;45.00;40.67;;;;;;;;5162439;27;13294;-75
2022/01/27 18:21:29;;;;;;;;;45.33;34.00;;;;;;;;5161483;27;13280;-77
2022/01/27 18:23:55;;;;;;;;;31.75;30.00;;;;;;;;5167497;27;12462;-77
2022/01/27 18:26:20;;;;;;;;;35.00;31.33;;;;;;;;5168458;27;11504;-76
2022/01/27 18:28:48;;;;;;;;;35.25;30.75;;;;;;;;5162557;27;12484;-76
2022/01/27 18:31:15;;;;;;;;;37.67;34.33;;;;;;;;5161563;27;9881;-77
2022/01/27 18:33:41;;;;;;;;;34.25;27.00;;;;;;;;5162171;27;11515;-75
2022/01/27 18:36:07;;;;;;;;;34.33;30.00;;;;;;;;5163684;27;12360;-77
2022/01/27 18:38:32;;;;;;;;;35.00;30.50;;;;;;;;5164505;27;11536;-76
2022/01/27 18:40:58;;;;;;;;;28.75;26.00;;;;;;;;5164970;27;11578;-75
2022/01/27 18:43:24;;;;;;;;;39.33;34.33;;;;;;;;5144798;27;15821;-76
2022/01/27 18:45:49;;;;;;;;;33.67;30.67;;;;;;;;5161623;27;13645;-74
2022/01/27 18:48:15;;;;;;;;;29.33;27.33;;;;;;;;5162858;27;11395;-74
2022/01/27 18:50:42;;;;;;;;;29.00;26.33;;;;;;;;5162225;27;13369;-74
2022/01/27 18:53:11;;;;;;;;;29.67;27.00;;;;;;;;5161348;27;9924;-74
2022/01/27 18:55:36;;;;;;;;;31.67;26.00;;;;;;;;5161433;27;11540;-74
2022/01/27 18:58:02;;;;;;;;;38.00;29.67;;;;;;;;5162514;27;11566;-74
2022/01/27 19:00:27;;;;;;;;;33.67;30.00;;;;;;;;5174234;27;11808;-74
2022/01/27 19:02:53;;;;;;;;;42.67;38.67;;;;;;;;5161146;27;13619;-75
2022/01/27 19:05:18;;;;;;;;;37.33;30.33;;;;;;;;5170587;27;13294;-73
2022/01/27 19:07:43;;;;;;;;;35.33;30.00;;;;;;;;5161072;27;13231;-74
2022/01/27 19:10:09;;;;;;;;;29.67;26.00;;;;;;;;5160613;27;11442;-74
2022/01/27 19:12:34;;;;;;;;;32.25;29.75;;;;;;;;5167460;27;12200;-73
2022/01/27 19:15:00;;;;;;;;;38.00;34.33;;;;;;;;5161565;27;14612;-73
2022/01/27 19:17:25;;;;;;;;;38.33;35.00;;;;;;;;5160992;27;12003;-75
2022/01/27 19:19:52;;;;;;;;;39.67;34.00;;;;;;;;5147326;27;12113;-77
2022/01/27 19:22:18;;;;;;;;;46.00;40.33;;;;;;;;5182095;27;10710;-74
2022/01/27 19:24:43;;;;;;;;;38.00;34.33;;;;;;;;5171868;27;13432;-77
2022/01/27 19:27:10;;;;;;;;;36.33;31.00;;;;;;;;5169587;27;10893;-76
2022/01/27 19:29:42;;;;;;;;;31.67;27.67;;;;;;;;5169969;27;11944;-77
2022/01/27 19:32:09;;;;;;;;;28.67;25.67;;;;;;;;5168571;27;12552;-76
2022/01/27 19:34:35;;;;;;;;;33.33;28.00;;;;;;;;5168447;27;11548;-76
2022/01/27 19:37:00;;;;;;;;;35.00;33.00;;;;;;;;5167559;27;13466;-76
2022/01/27 19:39:27;;;;;;;;;30.67;24.00;;;;;;;;5171664;27;11582;-76
2022/01/27 19:41:53;;;;;;;;;44.33;32.00;;;;;;;;5152583;27;13875;-73
2022/01/27 19:44:18;;;;;;;;;50.00;41.00;;;;;;;;5170475;27;12376;-75
2022/01/27 19:46:44;;;;;;;;;38.67;33.33;;;;;;;;5168481;27;12195;-79
2022/01/27 19:49:09;;;;;;;;;57.33;48.67;;;;;;;;5171646;27;13241;-77
2022/01/27 19:51:38;;;;;;;;;47.67;37.33;;;;;;;;5170445;27;14343;-78
2022/01/27 19:54:06;;;;;;;;;36.00;30.67;;;;;;;;5170866;27;13354;-76
2022/01/27 19:56:32;;;;;;;;;30.00;23.67;;;;;;;;5169444;27;13861;-76
2022/01/27 19:58:57;;;;;;;;;33.33;29.00;;;;;;;;5171418;27;11542;-76
2022/01/27 20:01:22;;;;;;;;;34.00;25.33;;;;;;;;5169397;27;11354;-74
2022/01/27 20:03:47;;;;;;;;;35.33;34.33;;;;;;;;5168790;27;12001;-76
2022/01/27 20:06:13;;;;;;;;;41.00;38.67;;;;;;;;5149361;27;13669;-75
2022/01/27 20:08:38;;;;;;;;;33.67;28.00;;;;;;;;5170153;27;13418;-76
2022/01/27 20:11:04;;;;;;;;;44.00;33.33;;;;;;;;5168475;27;13274;-75
2022/01/27 20:13:32;;;;;;;;;41.67;34.00;;;;;;;;5169471;27;13589;-76
2022/01/27 20:15:59;;;;;;;;;39.00;32.00;;;;;;;;5169775;27;12038;-76
2022/01/27 20:18:25;;;;;;;;;33.67;29.67;;;;;;;;5168367;27;12466;-75
2022/01/27 20:20:50;;;;;;;;;40.67;31.67;;;;;;;;5168101;27;12536;-74
2022/01/27 20:23:15;;;;;;;;;36.00;27.33;;;;;;;;5169445;27;10505;-74
2022/01/27 20:25:40;;;;;;;;;44.67;38.00;;;;;;;;5170548;27;13553;-75
2022/01/27 20:28:06;;;;;;;;;44.67;38.33;;;;;;;;5168570;27;13295;-75
2022/01/27 20:30:31;;;;;;;;;50.33;41.67;;;;;;;;5170576;27;9459;-73
2022/01/27 20:32:56;;;;;;;;;45.33;39.67;;;;;;;;5172753;27;13242;-75
2022/01/27 20:35:22;;;;;;;;;43.00;39.00;;;;;;;;5180943;27;10540;-75
2022/01/27 20:37:47;;;;;;;;;52.33;42.67;;;;;;;;5181237;27;11576;-85
2022/01/27 20:40:16;;;;;;;;;46.33;39.33;;;;;;;;5175105;27;13413;-78
2022/01/27 20:42:43;;;;;;;;;57.33;45.33;;;;;;;;5067949;27;14512;-78
2022/01/27 20:45:10;;;;;;;;;47.33;38.67;;;;;;;;5149443;27;10677;-77
2022/01/27 20:47:35;;;;;;;;;45.67;38.33;;;;;;;;5159719;27;13491;-77
2022/01/27 20:50:00;;;;;;;;;45.67;41.00;;;;;;;;5159003;27;11560;-77
2022/01/27 20:52:26;;;;;;;;;41.00;37.00;;;;;;;;5159614;27;10337;-74
2022/01/27 20:54:52;;;;;;;;;45.00;42.33;;;;;;;;5160541;27;11503;-76
2022/01/27 20:57:17;;;;;;;;;48.67;41.00;;;;;;;;5160209;27;12382;-77
2022/01/27 20:59:43;;;;;;;;;53.00;40.00;;;;;;;;5160362;27;11411;-76
2022/01/27 21:02:08;;;;;;;;;55.33;42.00;;;;;;;;5160194;27;12270;-76
2022/01/27 21:04:33;;;;;;;;;46.67;42.33;;;;;;;;5152077;27;10947;-75
2022/01/27 21:06:59;;;;;;;;;50.67;43.33;;;;;;;;5138648;27;13281;-76
2022/01/27 21:09:26;;;;;;;;;49.67;43.67;;;;;;;;5138903;27;10374;-76
2022/01/27 21:11:51;;;;;;;;;43.33;37.33;;;;;;;;5139154;27;13562;-76
2022/01/27 21:14:16;;;;;;;;;41.67;38.33;;;;;;;;5139246;27;12199;-76
2022/01/27 21:16:42;;;;;;;;;46.67;40.67;;;;;;;;5139336;27;10560;-75
2022/01/27 21:19:07;;;;;;;;;45.67;39.00;;;;;;;;5139436;27;12382;-76
2022/01/27 21:21:34;;;;;;;;;44.00;41.33;;;;;;;;5139040;27;12185;-75
2022/01/27 21:24:00;;;;;;;;;49.33;42.00;;;;;;;;5139202;27;12441;-76
2022/01/27 21:26:25;;;;;;;;;44.33;41.00;;;;;;;;5142602;27;11359;-76
2022/01/27 21:28:50;;;;;;;;;44.33;37.33;;;;;;;;5142683;27;8797;-76
2022/01/27 21:31:15;;;;;;;;;40.00;38.67;;;;;;;;5142986;27;10466;-77
2022/01/27 21:33:41;;;;;;;;;43.33;39.33;;;;;;;;5143443;27;13002;-76
2022/01/27 21:36:07;;;;;;;;;45.33;40.00;;;;;;;;5153875;27;11572;-76
2022/01/27 21:38:32;;;;;;;;;35.67;34.33;;;;;;;;5148889;27;12395;-76
2022/01/27 21:40:59;;;;;;;;;42.67;39.67;;;;;;;;5157678;27;13452;-77
2022/01/27 21:43:24;;;;;;;;;44.00;38.33;;;;;;;;5162791;27;13473;-76
2022/01/27 21:45:49;;;;;;;;;51.00;40.00;;;;;;;;5162908;27;11640;-77
2022/01/27 21:48:14;;;;;;;;;40.33;38.33;;;;;;;;5162047;27;13501;-76
2022/01/27 21:50:40;;;;;;;;;35.67;33.00;;;;;;;;5162296;27;13277;-77
2022/01/27 21:53:05;;;;;;;;;33.00;26.33;;;;;;;;5143808;27;13486;-78
2022/01/27 21:55:30;;;;;;;;;33.33;32.00;;;;;;;;5162917;27;12498;-75
2022/01/27 21:57:58;;;;;;;;;30.33;28.00;;;;;;;;5162612;27;12187;-78
2022/01/27 22:00:24;;;;;;;;;32.33;29.67;;;;;;;;5162629;27;9780;-77
2022/01/27 22:02:49;;;;;;;;;37.67;29.00;;;;;;;;5163120;27;11707;-76
2022/01/27 22:05:15;;;;;;;;;37.00;31.67;;;;;;;;5163531;27;12710;-76
2022/01/27 22:07:40;;;;;;;;;37.33;33.33;;;;;;;;5162919;27;12563;-78
2022/01/27 22:10:07;;;;;;;;;35.67;30.33;;;;;;;;5163679;27;10340;-78
2022/01/27 22:12:33;;;;;;;;;38.00;31.33;;;;;;;;5163288;27;10425;-78
2022/01/27 22:14:58;;;;;;;;;45.33;38.00;;;;;;;;5143829;27;12208;-77
2022/01/27 22:17:24;;;;;;;;;36.00;33.00;;;;;;;;5159251;27;13222;-76
2022/01/27 22:19:51;;;;;;;;;40.67;34.33;;;;;;;;5143411;27;12577;-77
2022/01/27 22:22:16;;;;;;;;;36.00;36.00;;;;;;;;5163040;27;13360;-79
2022/01/27 22:24:42;;;;;;;;;44.67;33.00;;;;;;;;5162652;27;13552;-77
2022/01/27 22:27:07;;;;;;;;;39.33;39.00;;;;;;;;5162558;27;12181;-75
2022/01/27 22:29:32;;;;;;;;;44.67;40.00;;;;;;;;5162176;27;13356;-75
2022/01/27 22:31:58;;;;;;;;;43.67;37.00;;;;;;;;5162532;27;13632;-83
2022/01/27 22:34:29;;;;;;;;;61.33;49.33;;;;;;;;5142277;27;10009;-79
2022/01/27 22:36:56;;;;;;;;;72.00;56.67;;;;;;;;5161096;27;13483;-78
2022/01/27 22:39:23;;;;;;;;;73.00;59.25;;;;;;;;5161677;27;13460;-80
2022/01/27 22:41:48;;;;;;;;;78.25;63.25;;;;;;;;5162543;27;11636;-77
2022/01/27 22:44:13;;;;;;;;;86.25;66.25;;;;;;;;5162344;27;12483;-76
2022/01/27 22:46:39;;;;;;;;;83.00;64.00;;;;;;;;5159181;27;10357;-76
2022/01/27 22:49:05;;;;;;;;;83.75;67.25;;;;;;;;5162223;27;11432;-77
2022/01/27 22:51:30;;;;;;;;;91.50;70.00;;;;;;;;5161736;27;10613;-77
2022/01/27 22:53:55;;;;;;;;;88.75;67.00;;;;;;;;5161398;27;13199;-77
2022/01/27 22:56:21;;;;;;;;;90.00;68.25;;;;;;;;5162270;27;12254;-77
2022/01/27 22:58:46;;;;;;;;;93.75;70.75;;;;;;;;5142733;27;13589;-77
2022/01/27 23:01:11;;;;;;;;;87.25;69.75;;;;;;;;5161608;27;11356;-77
2022/01/27 23:03:36;;;;;;;;;90.50;69.00;;;;;;;;5161382;27;11384;-78
2022/01/27 23:06:02;;;;;;;;;86.00;67.25;;;;;;;;5161494;27;13402;-82
2022/01/27 23:08:34;;;;;;;;;83.50;67.00;;;;;;;;5141524;27;16571;-78
2022/01/27 23:11:00;;;;;;;;;88.50;68.00;;;;;;;;5141875;27;11697;-79
2022/01/27 23:13:30;;;;;;;;;81.25;62.75;;;;;;;;5139697;27;8896;-81
2022/01/27 23:18:37;;;;;;;;;86.50;70.75;;;;;;;;5140442;27;10868;-79
2022/01/27 23:21:19;;;;;;;;;90.75;73.00;;;;;;;;5141572;27;11598;-80
2022/01/27 23:23:45;;;;;;;;;84.75;66.25;;;;;;;;5140951;27;13711;-80
2022/01/27 23:26:17;;;;;;;;;85.00;68.75;;;;;;;;5141503;27;13221;-81
2022/01/27 23:28:46;;;;;;;;;85.00;70.00;;;;;;;;5122926;27;10517;-78
